Time;durP1;ratioP1;P1;durP2;ratioP2;P2;SDS_P1;SDS_P2;PMS_P1;PMS_P2;Temp;Humidity;BMP_temperature;BMP_pressure;BME280_temperature;BME280_humidity;BME280_pressure;Samples;Min_cycle;Max_cycle;Signal;HPM_P1;HPM_P2
2023/11/16 00:00:32;;;;;;;;;;;;;;;;;;5027005;28;20042;-56
2023/11/16 00:03:00;;;;;;;;;;;;;;;;;;5017379;28;20388;-58
2023/11/16 00:05:28;;;;;;;;;;;;;;;;;;5022246;28;20004;-56
2023/11/16 00:07:57;;;;;;;;;;;;;;;;;;5020287;28;19922;-64
2023/11/16 00:10:24;;;;;;;;;;;;;;;;;;5025497;28;19928;-55
2023/11/16 00:12:50;;;;;;;;;;;;;;;;;;5022514;28;19924;-57
2023/11/16 00:15:17;;;;;;;;;;;;;;;;;;5027404;28;20404;-55
2023/11/16 00:17:43;;;;;;;;;;;;;;;;;;5025703;28;19932;-58
2023/11/16 00:20:10;;;;;;;;;;;;;;;;;;5024615;28;20431;-55
2023/11/16 00:22:37;;;;;;;;;;;;;;;;;;5026445;28;20064;-57
2023/11/16 00:25:06;;;;;;;;;;;;;;;;;;5029520;28;19952;-57
2023/11/16 00:27:32;;;;;;;;;;;;;;;;;;5033998;28;19921;-58
2023/11/16 00:29:59;;;;;;;;;;;;;;;;;;5034777;28;19980;-55
2023/11/16 00:32:26;;;;;;;;;;;;;;;;;;5034768;28;20007;-54
2023/11/16 00:34:52;;;;;;;;;;;;;;;;;;5034936;28;20368;-58
2023/11/16 00:37:18;;;;;;;;;;;;;;;;;;5034702;28;20019;-57
2023/11/16 00:39:45;;;;;;;;;;;;;;;;;;5035121;28;19921;-54
2023/11/16 00:42:13;;;;;;;;;;;;;;;;;;5034363;28;19921;-51
2023/11/16 00:44:40;;;;;;;;;;;;;;;;;;5034869;28;19925;-56
2023/11/16 00:47:07;;;;;;;;;;;;;;;;;;5033410;28;20381;-55
2023/11/16 00:49:34;;;;;;;;;;;;;;;;;;5034426;28;19927;-57
2023/11/16 00:52:00;;;;;;;;;;;;;;;;;;5033688;28;20007;-52
2023/11/16 00:54:27;;;;;;;;;;;;;;;;;;5033304;28;20376;-58
2023/11/16 00:56:53;;;;;;;;;;;;;;;;;;5026976;28;20024;-54
2023/11/16 00:59:22;;;;;;;;;;;;;;;;;;5034474;28;19921;-55
2023/11/16 01:01:49;;;;;;;;;;;;;;;;;;5033588;28;19968;-56
2023/11/16 01:04:15;;;;;;;;;;;;;;;;;;5033917;28;20303;-58
2023/11/16 01:06:42;;;;;;;;;;;;;;;;;;5033709;28;19924;-57
2023/11/16 01:09:09;;;;;;;;;;;;;;;;;;5034427;28;20288;-55
2023/11/16 01:11:36;;;;;;;;;;;;;;;;;;5034118;28;20222;-54
2023/11/16 01:14:03;;;;;;;;;;;;;;;;;;5033802;28;19921;-57
2023/11/16 01:16:38;;;;;;;;;;;;;;;;;;5033764;28;19927;-54
2023/11/16 01:19:08;;;;;;;;;;;;;;;;;;5033839;28;20016;-53
2023/11/16 01:21:41;;;;;;;;;;;;;;;;;;5033135;28;20284;-55
2023/11/16 01:24:08;;;;;;;;;;;;;;;;;;5028077;28;19921;-55
2023/11/16 01:26:34;;;;;;;;;;;;;;;;;;5033873;28;19924;-55
2023/11/16 01:29:06;;;;;;;;;;;;;;;;;;5033812;28;19921;-56
2023/11/16 01:31:34;;;;;;;;;;;;;;;;;;5027899;28;19936;-60
2023/11/16 01:34:00;;;;;;;;;;;;;;;;;;5031678;28;20056;-53
2023/11/16 01:36:27;;;;;;;;;;;;;;;;;;5033937;28;19921;-58
2023/11/16 01:38:53;;;;;;;;;;;;;;;;;;5030695;28;19929;-54
2023/11/16 01:41:20;;;;;;;;;;;;;;;;;;5032742;28;20427;-55
2023/11/16 01:43:47;;;;;;;;;;;;;;;;;;5033005;28;19948;-57
2023/11/16 01:46:15;;;;;;;;;;;;;;;;;;5033115;28;19921;-59
2023/11/16 01:48:44;;;;;;;;;;;;;;;;;;5033472;28;19924;-58
2023/11/16 01:51:12;;;;;;;;;;;;;;;;;;5033510;28;19953;-55
2023/11/16 01:53:40;;;;;;;;;;;;;;;;;;5033312;28;19921;-55
2023/11/16 01:56:07;;;;;;;;;;;;;;;;;;5033166;28;19921;-54
2023/11/16 01:58:34;;;;;;;;;;;;;;;;;;5033595;28;20007;-54
2023/11/16 02:01:02;;;;;;;;;;;;;;;;;;5032922;28;19928;-53
2023/11/16 02:03:29;;;;;;;;;;;;;;;;;;5033471;28;20284;-54
2023/11/16 02:05:58;;;;;;;;;;;;;;;;;;5033048;28;19924;-55
2023/11/16 02:08:25;;;;;;;;;;;;;;;;;;5029754;28;19921;-56
2023/11/16 02:10:51;;;;;;;;;;;;;;;;;;5027411;28;19936;-55
2023/11/16 02:13:20;;;;;;;;;;;;;;;;;;5032848;28;19921;-54
2023/11/16 02:15:47;;;;;;;;;;;;;;;;;;5033011;28;20039;-52
2023/11/16 02:18:14;;;;;;;;;;;;;;;;;;5032505;28;19921;-54
2023/11/16 02:20:41;;;;;;;;;;;;;;;;;;5032299;28;19951;-55
2023/11/16 02:23:09;;;;;;;;;;;;;;;;;;5032989;28;19921;-58
2023/11/16 02:25:42;;;;;;;;;;;;;;;;;;5032642;28;20427;-53
2023/11/16 02:28:09;;;;;;;;;;;;;;;;;;5032575;28;20376;-56
2023/11/16 02:30:35;;;;;;;;;;;;;;;;;;5032930;28;19925;-54
2023/11/16 02:33:03;;;;;;;;;;;;;;;;;;5032541;28;20384;-52
2023/11/16 02:35:29;;;;;;;;;;;;;;;;;;5032521;28;20102;-53
2023/11/16 02:37:56;;;;;;;;;;;;;;;;;;5031975;28;19924;-57
2023/11/16 02:40:24;;;;;;;;;;;;;;;;;;5032556;28;19925;-55
2023/11/16 02:42:52;;;;;;;;;;;;;;;;;;5030409;28;19967;-54
2023/11/16 02:45:18;;;;;;;;;;;;;;;;;;5029716;28;19920;-57
2023/11/16 02:47:46;;;;;;;;;;;;;;;;;;5032097;28;19921;-55
2023/11/16 02:50:14;;;;;;;;;;;;;;;;;;5032032;28;20373;-54
2023/11/16 02:52:41;;;;;;;;;;;;;;;;;;5031694;28;19921;-54
2023/11/16 02:55:08;;;;;;;;;;;;;;;;;;5031892;28;19931;-56
2023/11/16 02:57:36;;;;;;;;;;;;;;;;;;5032472;28;19921;-57
2023/11/16 03:00:03;;;;;;;;;;;;;;;;;;5032392;28;19927;-55
2023/11/16 03:02:32;;;;;;;;;;;;;;;;;;5031725;28;19925;-56
2023/11/16 03:04:58;;;;;;;;;;;;;;;;;;5027757;28;20391;-51
2023/11/16 03:07:25;;;;;;;;;;;;;;;;;;5031746;28;20298;-55
2023/11/16 03:09:51;;;;;;;;;;;;;;;;;;5032050;28;19921;-56
2023/11/16 03:12:18;;;;;;;;;;;;;;;;;;5031728;28;20394;-55
2023/11/16 03:14:46;;;;;;;;;;;;;;;;;;5032236;28;19928;-56
2023/11/16 03:17:13;;;;;;;;;;;;;;;;;;5030261;28;19928;-55
2023/11/16 03:19:40;;;;;;;;;;;;;;;;;;5031802;28;19921;-52
2023/11/16 03:22:07;;;;;;;;;;;;;;;;;;5031687;28;20364;-53
2023/11/16 03:24:34;;;;;;;;;;;;;;;;;;5031461;28;19960;-52
2023/11/16 03:27:00;;;;;;;;;;;;;;;;;;5031682;28;19921;-58
2023/11/16 03:29:29;;;;;;;;;;;;;;;;;;5026402;28;19931;-56
2023/11/16 03:31:57;;;;;;;;;;;;;;;;;;5031409;28;20006;-55
2023/11/16 03:34:23;;;;;;;;;;;;;;;;;;5031502;28;19928;-55
2023/11/16 03:36:49;;;;;;;;;;;;;;;;;;5029683;28;20381;-55
2023/11/16 03:39:17;;;;;;;;;;;;;;;;;;5031626;28;19921;-55
2023/11/16 03:41:43;;;;;;;;;;;;;;;;;;5031821;28;19921;-56
2023/11/16 03:44:09;;;;;;;;;;;;;;;;;;5030936;28;19921;-53
2023/11/16 03:46:36;;;;;;;;;;;;;;;;;;5031361;28;20271;-52
2023/11/16 03:49:04;;;;;;;;;;;;;;;;;;5031674;28;19921;-54
2023/11/16 03:51:30;;;;;;;;;;;;;;;;;;5031765;28;19921;-54
2023/11/16 03:53:57;;;;;;;;;;;;;;;;;;5031138;28;19928;-55
2023/11/16 03:56:24;;;;;;;;;;;;;;;;;;5031158;28;20299;-60
2023/11/16 03:58:50;;;;;;;;;;;;;;;;;;5031585;28;20308;-57
2023/11/16 04:01:17;;;;;;;;;;;;;;;;;;5032243;28;19921;-56
2023/11/16 04:03:43;;;;;;;;;;;;;;;;;;5035032;28;19979;-56
2023/11/16 04:06:18;;;;;;;;;;;;;;;;;;5035274;28;20019;-56
2023/11/16 04:08:46;;;;;;;;;;;;;;;;;;5035532;28;19921;-56
2023/11/16 04:11:13;;;;;;;;;;;;;;;;;;5034984;28;19921;-58
2023/11/16 04:13:39;;;;;;;;;;;;;;;;;;5035343;28;19927;-53
2023/11/16 04:16:18;;;;;;;;;;;;;;;;;;5034637;28;19921;-54
2023/11/16 04:18:44;;;;;;;;;;;;;;;;;;5035462;28;19940;-55
2023/11/16 04:21:12;;;;;;;;;;;;;;;;;;5035511;28;19921;-54
2023/11/16 04:23:39;;;;;;;;;;;;;;;;;;5035153;28;19983;-55
2023/11/16 04:26:08;;;;;;;;;;;;;;;;;;5034351;28;19927;-58
2023/11/16 04:28:36;;;;;;;;;;;;;;;;;;5035469;28;19921;-54
2023/11/16 04:31:03;;;;;;;;;;;;;;;;;;5035423;28;19994;-56
2023/11/16 04:33:31;;;;;;;;;;;;;;;;;;5035024;28;19921;-56
2023/11/16 04:35:58;;;;;;;;;;;;;;;;;;5034629;28;19924;-54
2023/11/16 04:38:27;;;;;;;;;;;;;;;;;;5034865;28;19927;-57
2023/11/16 04:40:55;;;;;;;;;;;;;;;;;;5035081;28;20265;-52
2023/11/16 04:43:22;;;;;;;;;;;;;;;;;;5034444;28;20274;-56
2023/11/16 04:45:50;;;;;;;;;;;;;;;;;;5034663;28;20446;-56
2023/11/16 04:48:17;;;;;;;;;;;;;;;;;;5034713;28;20398;-53
2023/11/16 04:50:44;;;;;;;;;;;;;;;;;;5034802;28;20488;-54
2023/11/16 04:53:10;;;;;;;;;;;;;;;;;;5034217;28;20388;-57
2023/11/16 04:55:36;;;;;;;;;;;;;;;;;;5034750;28;20000;-55
2023/11/16 04:58:04;;;;;;;;;;;;;;;;;;5034470;28;20414;-53
2023/11/16 05:00:31;;;;;;;;;;;;;;;;;;5034585;28;19921;-55
2023/11/16 05:02:57;;;;;;;;;;;;;;;;;;5034078;28;19935;-53
2023/11/16 05:05:23;;;;;;;;;;;;;;;;;;5034518;28;19927;-54
2023/11/16 05:07:50;;;;;;;;;;;;;;;;;;5033928;28;19932;-56
2023/11/16 05:10:17;;;;;;;;;;;;;;;;;;5034684;28;19967;-58
2023/11/16 05:12:47;;;;;;;;;;;;;;;;;;5033887;28;20008;-55
2023/11/16 05:15:16;;;;;;;;;;;;;;;;;;5034480;28;19928;-53
2023/11/16 05:17:43;;;;;;;;;;;;;;;;;;5033919;28;20015;-57
2023/11/16 05:20:10;;;;;;;;;;;;;;;;;;5034354;28;20307;-58
2023/11/16 05:22:36;;;;;;;;;;;;;;;;;;5033824;28;19935;-55
2023/11/16 05:25:06;;;;;;;;;;;;;;;;;;5033593;28;20005;-54
2023/11/16 05:27:32;;;;;;;;;;;;;;;;;;5033810;28;20389;-52
2023/11/16 05:29:59;;;;;;;;;;;;;;;;;;5034220;28;19924;-56
2023/11/16 05:32:27;;;;;;;;;;;;;;;;;;5033764;28;19928;-58
2023/11/16 05:34:53;;;;;;;;;;;;;;;;;;5033440;28;19921;-56
2023/11/16 05:37:20;;;;;;;;;;;;;;;;;;5033771;28;19971;-58
2023/11/16 05:39:46;;;;;;;;;;;;;;;;;;5033983;28;19921;-55
2023/11/16 05:42:12;;;;;;;;;;;;;;;;;;5034190;28;19952;-55
2023/11/16 05:44:39;;;;;;;;;;;;;;;;;;5033245;28;19921;-53
2023/11/16 05:47:06;;;;;;;;;;;;;;;;;;5033660;28;20027;-58
2023/11/16 05:49:34;;;;;;;;;;;;;;;;;;5033464;28;19925;-55
2023/11/16 05:52:02;;;;;;;;;;;;;;;;;;5034030;28;19931;-58
2023/11/16 05:54:28;;;;;;;;;;;;;;;;;;5033431;28;19925;-55
2023/11/16 05:56:54;;;;;;;;;;;;;;;;;;5033602;28;19925;-58
2023/11/16 05:59:21;;;;;;;;;;;;;;;;;;5033444;28;19921;-56
2023/11/16 06:01:47;;;;;;;;;;;;;;;;;;5033326;28;20376;-56
2023/11/16 06:04:14;;;;;;;;;;;;;;;;;;5033614;28;19921;-56
2023/11/16 06:06:42;;;;;;;;;;;;;;;;;;5033447;28;19921;-51
2023/11/16 06:09:09;;;;;;;;;;;;;;;;;;5033559;28;19925;-56
2023/11/16 06:11:36;;;;;;;;;;;;;;;;;;5033623;28;20280;-54
2023/11/16 06:14:08;;;;;;;;;;;;;;;;;;5033383;28;19966;-57
2023/11/16 06:16:34;;;;;;;;;;;;;;;;;;5030591;28;19975;-58
2023/11/16 06:19:01;;;;;;;;;;;;;;;;;;5033605;28;19952;-54
2023/11/16 06:21:27;;;;;;;;;;;;;;;;;;5033065;28;19973;-56
2023/11/16 06:23:55;;;;;;;;;;;;;;;;;;5032444;28;19975;-57
2023/11/16 06:26:21;;;;;;;;;;;;;;;;;;5032165;28;19964;-56
2023/11/16 06:28:48;;;;;;;;;;;;;;;;;;5032082;28;20015;-55
2023/11/16 06:31:14;;;;;;;;;;;;;;;;;;5032979;28;19931;-60
2023/11/16 06:33:41;;;;;;;;;;;;;;;;;;5033014;28;19925;-57
2023/11/16 06:36:08;;;;;;;;;;;;;;;;;;5032650;28;19921;-54
2023/11/16 06:38:34;;;;;;;;;;;;;;;;;;5033191;28;20408;-58
2023/11/16 06:41:03;;;;;;;;;;;;;;;;;;5032906;28;19944;-55
2023/11/16 06:43:29;;;;;;;;;;;;;;;;;;5032497;28;20288;-56
2023/11/16 06:45:58;;;;;;;;;;;;;;;;;;5032970;28;20013;-56
2023/11/16 06:48:24;;;;;;;;;;;;;;;;;;5032686;28;19987;-54
2023/11/16 06:50:51;;;;;;;;;;;;;;;;;;5032623;28;19921;-55
2023/11/16 06:53:17;;;;;;;;;;;;;;;;;;5032920;28;19921;-55
2023/11/16 06:55:43;;;;;;;;;;;;;;;;;;5031525;28;19943;-57
2023/11/16 06:58:12;;;;;;;;;;;;;;;;;;5031859;28;20416;-56
2023/11/16 07:00:38;;;;;;;;;;;;;;;;;;5032416;28;19975;-56
2023/11/16 07:03:05;;;;;;;;;;;;;;;;;;5031995;28;19921;-55
2023/11/16 07:05:32;;;;;;;;;;;;;;;;;;5031943;28;19928;-57
2023/11/16 07:07:58;;;;;;;;;;;;;;;;;;5032593;28;19921;-54
2023/11/16 07:10:25;;;;;;;;;;;;;;;;;;5032533;28;20343;-55
2023/11/16 07:12:52;;;;;;;;;;;;;;;;;;5032173;28;19983;-57
2023/11/16 07:15:21;;;;;;;;;;;;;;;;;;5031842;28;19928;-55
2023/11/16 07:17:48;;;;;;;;;;;;;;;;;;5032334;28;19921;-56
2023/11/16 07:20:16;;;;;;;;;;;;;;;;;;5032100;28;19925;-52
2023/11/16 07:22:43;;;;;;;;;;;;;;;;;;5032248;28;20311;-59
2023/11/16 07:25:10;;;;;;;;;;;;;;;;;;5030793;28;19925;-56
2023/11/16 07:27:38;;;;;;;;;;;;;;;;;;5030557;28;19957;-57
2023/11/16 07:30:04;;;;;;;;;;;;;;;;;;5032328;28;19921;-59
2023/11/16 07:32:32;;;;;;;;;;;;;;;;;;5021739;28;19928;-54
2023/11/16 07:34:59;;;;;;;;;;;;;;;;;;5028021;28;19999;-55
2023/11/16 07:37:26;;;;;;;;;;;;;;;;;;5031744;28;20339;-61
2023/11/16 07:39:54;;;;;;;;;;;;;;;;;;5031861;28;19921;-54
2023/11/16 07:42:21;;;;;;;;;;;;;;;;;;5031364;28;19928;-52
2023/11/16 07:44:47;;;;;;;;;;;;;;;;;;5031926;28;19930;-59
2023/11/16 07:47:14;;;;;;;;;;;;;;;;;;5026022;28;19921;-58
2023/11/16 07:49:42;;;;;;;;;;;;;;;;;;5027833;28;19971;-53
2023/11/16 07:52:09;;;;;;;;;;;;;;;;;;5030873;28;20392;-55
2023/11/16 07:54:44;;;;;;;;;;;;;;;;;;5026528;28;19920;-55
2023/11/16 07:57:20;;;;;;;;;;;;;;;;;;5025944;28;19965;-56
2023/11/16 07:59:47;;;;;;;;;;;;;;;;;;5025812;28;19983;-56
2023/11/16 08:02:16;;;;;;;;;;;;;;;;;;5029279;28;22057;-61
2023/11/16 08:04:43;;;;;;;;;;;;;;;;;;5029990;28;19975;-57
2023/11/16 08:07:11;;;;;;;;;;;;;;;;;;5031528;28;20273;-56
2023/11/16 08:09:37;;;;;;;;;;;;;;;;;;5026231;28;20372;-57
2023/11/16 08:12:07;;;;;;;;;;;;;;;;;;5025038;28;19950;-56
2023/11/16 08:14:34;;;;;;;;;;;;;;;;;;5029794;28;19925;-56
2023/11/16 08:17:01;;;;;;;;;;;;;;;;;;5032421;28;19920;-56
2023/11/16 08:19:31;;;;;;;;;;;;;;;;;;5031268;28;19921;-56
2023/11/16 08:22:01;;;;;;;;;;;;;;;;;;5032112;28;19927;-56
2023/11/16 08:24:27;;;;;;;;;;;;;;;;;;5031827;28;19921;-53
2023/11/16 08:26:56;;;;;;;;;;;;;;;;;;5031429;28;20418;-53
2023/11/16 08:29:22;;;;;;;;;;;;;;;;;;5031736;28;19960;-54
2023/11/16 08:31:52;;;;;;;;;;;;;;;;;;5031123;28;19921;-57
2023/11/16 08:34:19;;;;;;;;;;;;;;;;;;5029344;28;19943;-54
2023/11/16 08:36:46;;;;;;;;;;;;;;;;;;5024721;28;20023;-53
2023/11/16 08:39:17;;;;;;;;;;;;;;;;;;5025153;28;19921;-60
2023/11/16 08:41:44;;;;;;;;;;;;;;;;;;5023554;28;19925;-59
2023/11/16 08:44:10;;;;;;;;;;;;;;;;;;5019692;28;19935;-57
2023/11/16 08:46:41;;;;;;;;;;;;;;;;;;5021198;28;19921;-60
2023/11/16 08:49:09;;;;;;;;;;;;;;;;;;5021808;28;20476;-55
2023/11/16 08:51:38;;;;;;;;;;;;;;;;;;5031870;28;20023;-64
2023/11/16 08:54:07;;;;;;;;;;;;;;;;;;5020773;28;20010;-57
2023/11/16 08:56:35;;;;;;;;;;;;;;;;;;5028769;28;20000;-54
2023/11/16 08:59:07;;;;;;;;;;;;;;;;;;5032304;28;20436;-53
2023/11/16 09:01:35;;;;;;;;;;;;;;;;;;5032231;28;19960;-55
2023/11/16 09:04:01;;;;;;;;;;;;;;;;;;5032620;28;19924;-55
2023/11/16 09:06:30;;;;;;;;;;;;;;;;;;5032315;28;19976;-55
2023/11/16 09:08:59;;;;;;;;;;;;;;;;;;5032189;28;19929;-58
2023/11/16 09:11:27;;;;;;;;;;;;;;;;;;5028118;28;20008;-60
2023/11/16 09:13:55;;;;;;;;;;;;;;;;;;5024899;28;20431;-58
2023/11/16 09:16:22;;;;;;;;;;;;;;;;;;5026619;28;19935;-56
2023/11/16 09:18:49;;;;;;;;;;;;;;;;;;5032024;28;20012;-55
2023/11/16 09:21:15;;;;;;;;;;;;;;;;;;5032231;28;19948;-58
2023/11/16 09:23:41;;;;;;;;;;;;;;;;;;5032036;28;19976;-58
2023/11/16 09:26:09;;;;;;;;;;;;;;;;;;5028587;28;20024;-59
2023/11/16 09:28:38;;;;;;;;;;;;;;;;;;5026724;28;19921;-54
2023/11/16 09:31:10;;;;;;;;;;;;;;;;;;5028934;28;19964;-57
2023/11/16 09:33:38;;;;;;;;;;;;;;;;;;5029484;28;19928;-58
2023/11/16 09:36:04;;;;;;;;;;;;;;;;;;5026576;28;19962;-57
2023/11/16 09:38:31;;;;;;;;;;;;;;;;;;5027541;28;19925;-58
2023/11/16 09:41:01;;;;;;;;;;;;;;;;;;5030504;28;19968;-60
2023/11/16 09:43:30;;;;;;;;;;;;;;;;;;5030802;28;20404;-57
2023/11/16 09:46:00;;;;;;;;;;;;;;;;;;5029511;28;19924;-57
2023/11/16 09:48:29;;;;;;;;;;;;;;;;;;5024785;28;20012;-58
2023/11/16 09:50:55;;;;;;;;;;;;;;;;;;5020850;28;19991;-55
2023/11/16 09:53:25;;;;;;;;;;;;;;;;;;5025693;28;19928;-57
2023/11/16 09:55:57;;;;;;;;;;;;;;;;;;5023958;28;19952;-54
2023/11/16 09:58:25;;;;;;;;;;;;;;;;;;5027262;28;19928;-58
2023/11/16 10:00:56;;;;;;;;;;;;;;;;;;5022164;28;19925;-53
2023/11/16 10:03:25;;;;;;;;;;;;;;;;;;5027216;28;20411;-52
2023/11/16 10:05:55;;;;;;;;;;;;;;;;;;5026007;28;19921;-54
2023/11/16 10:08:23;;;;;;;;;;;;;;;;;;5030801;28;19929;-58
2023/11/16 10:10:53;;;;;;;;;;;;;;;;;;5021796;28;19925;-56
2023/11/16 10:13:19;;;;;;;;;;;;;;;;;;5020310;28;19968;-53
2023/11/16 10:15:48;;;;;;;;;;;;;;;;;;5026313;28;19921;-57
2023/11/16 10:18:14;;;;;;;;;;;;;;;;;;5025882;28;20003;-59
2023/11/16 10:20:42;;;;;;;;;;;;;;;;;;5026372;28;19936;-56
2023/11/16 10:23:11;;;;;;;;;;;;;;;;;;5031476;28;19921;-58
2023/11/16 10:25:38;;;;;;;;;;;;;;;;;;5028009;28;20492;-58
2023/11/16 10:28:15;;;;;;;;;;;;;;;;;;5026423;28;20012;-57
2023/11/16 10:30:43;;;;;;;;;;;;;;;;;;5026120;28;19928;-55
2023/11/16 10:33:10;;;;;;;;;;;;;;;;;;5029835;28;19921;-57
2023/11/16 10:35:39;;;;;;;;;;;;;;;;;;5028829;28;19951;-52
2023/11/16 10:38:06;;;;;;;;;;;;;;;;;;5026240;28;19921;-55
2023/11/16 10:40:34;;;;;;;;;;;;;;;;;;5028205;28;19921;-60
2023/11/16 10:43:01;;;;;;;;;;;;;;;;;;5028184;28;19920;-56
2023/11/16 10:45:28;;;;;;;;;;;;;;;;;;5028327;28;20000;-58
2023/11/16 10:47:54;;;;;;;;;;;;;;;;;;5029964;28;20329;-56
2023/11/16 10:50:22;;;;;;;;;;;;;;;;;;5030755;28;19927;-54
2023/11/16 10:52:52;;;;;;;;;;;;;;;;;;5030965;28;19924;-54
2023/11/16 10:55:21;;;;;;;;;;;;;;;;;;5024780;28;19929;-51
2023/11/16 10:57:52;;;;;;;;;;;;;;;;;;5026483;28;19975;-57
2023/11/16 11:00:20;;;;;;;;;;;;;;;;;;5025101;28;20284;-54
2023/11/16 11:02:47;;;;;;;;;;;;;;;;;;5028794;28;20039;-54
2023/11/16 11:05:17;;;;;;;;;;;;;;;;;;5024604;28;19921;-61
2023/11/16 11:07:47;;;;;;;;;;;;;;;;;;5030446;28;19975;-58
2023/11/16 11:10:14;;;;;;;;;;;;;;;;;;5030513;28;19927;-59
2023/11/16 11:12:44;;;;;;;;;;;;;;;;;;5031211;28;19921;-59
2023/11/16 11:15:14;;;;;;;;;;;;;;;;;;5024109;28;20342;-58
2023/11/16 11:17:43;;;;;;;;;;;;;;;;;;5024346;28;20063;-58
2023/11/16 11:20:10;;;;;;;;;;;;;;;;;;5018224;28;19925;-56
2023/11/16 11:22:36;;;;;;;;;;;;;;;;;;5021579;28;20003;-61
2023/11/16 11:25:05;;;;;;;;;;;;;;;;;;5029389;28;20328;-60
2023/11/16 11:27:32;;;;;;;;;;;;;;;;;;5021126;28;20370;-60
2023/11/16 11:30:08;;;;;;;;;;;;;;;;;;5028811;28;20028;-56
2023/11/16 11:32:39;;;;;;;;;;;;;;;;;;5028266;28;19969;-57
2023/11/16 11:35:08;;;;;;;;;;;;;;;;;;5025976;28;19928;-56
2023/11/16 11:37:37;;;;;;;;;;;;;;;;;;5029864;28;19952;-57
2023/11/16 11:40:05;;;;;;;;;;;;;;;;;;5027672;28;20248;-55
2023/11/16 11:42:37;;;;;;;;;;;;;;;;;;5027258;28;19955;-57
2023/11/16 11:45:05;;;;;;;;;;;;;;;;;;5026364;28;20051;-56
2023/11/16 11:47:32;;;;;;;;;;;;;;;;;;5030495;28;20442;-56
2023/11/16 11:50:01;;;;;;;;;;;;;;;;;;5031128;28;20487;-55
2023/11/16 11:52:29;;;;;;;;;;;;;;;;;;5026835;28;19930;-54
2023/11/16 11:54:55;;;;;;;;;;;;;;;;;;5027483;28;20328;-55
2023/11/16 11:57:23;;;;;;;;;;;;;;;;;;5030451;28;20040;-60
2023/11/16 11:59:49;;;;;;;;;;;;;;;;;;5029256;28;19964;-57
2023/11/16 12:02:19;;;;;;;;;;;;;;;;;;5023405;28;19928;-54
2023/11/16 12:04:45;;;;;;;;;;;;;;;;;;5019814;28;19925;-55
2023/11/16 12:07:13;;;;;;;;;;;;;;;;;;5029943;28;19995;-54
2023/11/16 12:09:40;;;;;;;;;;;;;;;;;;5027457;28;19929;-54
2023/11/16 12:12:08;;;;;;;;;;;;;;;;;;5029750;28;19933;-55
2023/11/16 12:14:37;;;;;;;;;;;;;;;;;;5024843;28;19999;-53
2023/11/16 12:17:04;;;;;;;;;;;;;;;;;;5024864;28;20015;-55
2023/11/16 12:19:31;;;;;;;;;;;;;;;;;;5020275;28;19921;-56
2023/11/16 12:21:58;;;;;;;;;;;;;;;;;;5019401;28;19955;-53
2023/11/16 12:24:28;;;;;;;;;;;;;;;;;;5031871;28;19968;-54
2023/11/16 12:26:54;;;;;;;;;;;;;;;;;;5026523;28;19921;-54
2023/11/16 12:29:26;;;;;;;;;;;;;;;;;;5029153;28;19969;-58
2023/11/16 12:31:53;;;;;;;;;;;;;;;;;;5021454;28;19928;-52
2023/11/16 12:34:20;;;;;;;;;;;;;;;;;;5026380;28;19922;-55
2023/11/16 12:36:48;;;;;;;;;;;;;;;;;;5033907;28;20425;-56
2023/11/16 12:39:14;;;;;;;;;;;;;;;;;;5033688;28;19964;-52
2023/11/16 12:41:42;;;;;;;;;;;;;;;;;;5033799;28;20015;-55
2023/11/16 12:44:10;;;;;;;;;;;;;;;;;;5033524;28;19975;-55
2023/11/16 12:46:38;;;;;;;;;;;;;;;;;;5033397;28;19967;-56
2023/11/16 12:49:05;;;;;;;;;;;;;;;;;;5033721;28;20377;-53
2023/11/16 12:51:31;;;;;;;;;;;;;;;;;;5033892;28;20419;-54
2023/11/16 12:53:59;;;;;;;;;;;;;;;;;;5033477;28;20003;-52
2023/11/16 12:56:26;;;;;;;;;;;;;;;;;;5033663;28;20300;-56
2023/11/16 12:58:54;;;;;;;;;;;;;;;;;;5033613;28;19947;-53
2023/11/16 13:01:20;;;;;;;;;;;;;;;;;;5033905;28;19925;-53
2023/11/16 13:03:47;;;;;;;;;;;;;;;;;;5033927;28;19921;-54
2023/11/16 13:06:13;;;;;;;;;;;;;;;;;;5033389;28;20341;-56
2023/11/16 13:08:41;;;;;;;;;;;;;;;;;;5033287;28;20371;-56
2023/11/16 13:11:07;;;;;;;;;;;;;;;;;;5033270;28;20444;-53
2023/11/16 13:13:33;;;;;;;;;;;;;;;;;;5033055;28;19931;-56
2023/11/16 13:16:01;;;;;;;;;;;;;;;;;;5033003;28;20011;-55
2023/11/16 13:18:28;;;;;;;;;;;;;;;;;;5032985;28;20345;-55
2023/11/16 13:20:54;;;;;;;;;;;;;;;;;;5033137;28;19920;-57
2023/11/16 13:23:21;;;;;;;;;;;;;;;;;;5033596;28;19959;-56
2023/11/16 13:25:47;;;;;;;;;;;;;;;;;;5032959;28;20380;-53
2023/11/16 13:28:14;;;;;;;;;;;;;;;;;;5032640;28;20008;-51
2023/11/16 13:30:40;;;;;;;;;;;;;;;;;;5032926;28;19928;-55
2023/11/16 13:33:08;;;;;;;;;;;;;;;;;;5033291;28;19925;-55
2023/11/16 13:35:35;;;;;;;;;;;;;;;;;;5032977;28;20376;-54
2023/11/16 13:38:02;;;;;;;;;;;;;;;;;;5032837;28;19928;-56
2023/11/16 13:40:29;;;;;;;;;;;;;;;;;;5032713;28;19928;-55
2023/11/16 13:42:55;;;;;;;;;;;;;;;;;;5032649;28;19928;-51
2023/11/16 13:45:21;;;;;;;;;;;;;;;;;;5032504;28;19931;-51
2023/11/16 13:47:48;;;;;;;;;;;;;;;;;;5032583;28;20443;-54
2023/11/16 13:50:16;;;;;;;;;;;;;;;;;;5032705;28;20424;-52
2023/11/16 13:52:44;;;;;;;;;;;;;;;;;;5032627;28;19925;-54
2023/11/16 13:55:12;;;;;;;;;;;;;;;;;;5032598;28;20503;-55
2023/11/16 13:57:38;;;;;;;;;;;;;;;;;;5032585;28;19967;-55
2023/11/16 14:00:06;;;;;;;;;;;;;;;;;;5032514;28;19928;-53
2023/11/16 14:02:32;;;;;;;;;;;;;;;;;;5032499;28;19929;-54
2023/11/16 14:05:01;;;;;;;;;;;;;;;;;;5032437;28;19943;-52
2023/11/16 14:07:29;;;;;;;;;;;;;;;;;;5031967;28;20304;-59
2023/11/16 14:09:57;;;;;;;;;;;;;;;;;;5032355;28;19921;-55
2023/11/16 14:12:24;;;;;;;;;;;;;;;;;;5031885;28;20321;-53
2023/11/16 14:14:51;;;;;;;;;;;;;;;;;;5032367;28;19929;-56
2023/11/16 14:17:17;;;;;;;;;;;;;;;;;;5032004;28;20288;-54
2023/11/16 14:19:44;;;;;;;;;;;;;;;;;;5032132;28;20336;-54
2023/11/16 14:22:10;;;;;;;;;;;;;;;;;;5032115;28;20440;-52
2023/11/16 14:24:39;;;;;;;;;;;;;;;;;;5028665;28;19931;-58
2023/11/16 14:27:06;;;;;;;;;;;;;;;;;;5018608;28;19964;-56
2023/11/16 14:29:34;;;;;;;;;;;;;;;;;;5024621;28;19932;-53
2023/11/16 14:32:00;;;;;;;;;;;;;;;;;;5020220;28;19975;-53
2023/11/16 14:34:27;;;;;;;;;;;;;;;;;;5021354;28;19951;-58
2023/11/16 14:36:54;;;;;;;;;;;;;;;;;;5021755;28;19943;-55
2023/11/16 14:39:21;;;;;;;;;;;;;;;;;;5022089;28;19921;-61
2023/11/16 14:41:49;;;;;;;;;;;;;;;;;;5019212;28;19928;-55
2023/11/16 14:44:17;;;;;;;;;;;;;;;;;;5031081;28;20304;-55
2023/11/16 14:46:44;;;;;;;;;;;;;;;;;;5030431;28;20438;-57
2023/11/16 14:49:11;;;;;;;;;;;;;;;;;;5031444;28;20008;-56
2023/11/16 14:51:38;;;;;;;;;;;;;;;;;;5031271;28;19921;-55
2023/11/16 14:54:04;;;;;;;;;;;;;;;;;;5031111;28;19921;-53
2023/11/16 14:56:33;;;;;;;;;;;;;;;;;;5031023;28;19928;-53
2023/11/16 14:59:00;;;;;;;;;;;;;;;;;;5031078;28;19961;-54
2023/11/16 15:01:27;;;;;;;;;;;;;;;;;;5031132;28;19925;-52
2023/11/16 15:03:53;;;;;;;;;;;;;;;;;;5031223;28;19920;-54
2023/11/16 15:06:20;;;;;;;;;;;;;;;;;;5031238;28;19921;-53
2023/11/16 15:08:47;;;;;;;;;;;;;;;;;;5030934;28;20513;-52
2023/11/16 15:11:13;;;;;;;;;;;;;;;;;;5030410;28;19925;-53
2023/11/16 15:13:41;;;;;;;;;;;;;;;;;;5030672;28;20376;-55
2023/11/16 15:16:09;;;;;;;;;;;;;;;;;;5031137;28;20014;-52
2023/11/16 15:18:36;;;;;;;;;;;;;;;;;;5031074;28;19983;-53
2023/11/16 15:21:03;;;;;;;;;;;;;;;;;;5031132;28;20149;-52
2023/11/16 15:23:31;;;;;;;;;;;;;;;;;;5030900;28;19951;-55
2023/11/16 15:25:57;;;;;;;;;;;;;;;;;;5029758;28;19921;-56
2023/11/16 15:28:23;;;;;;;;;;;;;;;;;;5030396;28;19927;-55
2023/11/16 15:30:50;;;;;;;;;;;;;;;;;;5030669;28;20388;-53
2023/11/16 15:33:18;;;;;;;;;;;;;;;;;;5030478;28;19928;-52
2023/11/16 15:35:44;;;;;;;;;;;;;;;;;;5029256;28;20008;-57
2023/11/16 15:38:12;;;;;;;;;;;;;;;;;;5030880;28;20442;-56
2023/11/16 15:40:42;;;;;;;;;;;;;;;;;;5030417;28;19979;-55
2023/11/16 15:43:09;;;;;;;;;;;;;;;;;;5030284;28;20016;-55
2023/11/16 15:45:35;;;;;;;;;;;;;;;;;;5030422;28;19921;-54
2023/11/16 15:48:03;;;;;;;;;;;;;;;;;;5030334;28;20353;-56
2023/11/16 15:50:32;;;;;;;;;;;;;;;;;;5030746;28;20383;-54
2023/11/16 15:52:58;;;;;;;;;;;;;;;;;;5030527;28;20420;-54
2023/11/16 15:55:26;;;;;;;;;;;;;;;;;;5030536;28;20144;-57
2023/11/16 15:57:53;;;;;;;;;;;;;;;;;;5029323;28;19925;-55
2023/11/16 16:00:19;;;;;;;;;;;;;;;;;;5030658;28;19928;-55
2023/11/16 16:02:47;;;;;;;;;;;;;;;;;;5030308;28;20015;-52
2023/11/16 16:05:13;;;;;;;;;;;;;;;;;;5030183;28;20002;-55
2023/11/16 16:07:42;;;;;;;;;;;;;;;;;;5030138;28;20362;-54
2023/11/16 16:10:09;;;;;;;;;;;;;;;;;;5030080;28;19972;-57
2023/11/16 16:12:38;;;;;;;;;;;;;;;;;;5029949;28;20444;-54
2023/11/16 16:15:05;;;;;;;;;;;;;;;;;;5029821;28;20371;-52
2023/11/16 16:17:31;;;;;;;;;;;;;;;;;;5030127;28;19931;-56
2023/11/16 16:19:58;;;;;;;;;;;;;;;;;;5029931;28;19971;-55
2023/11/16 16:22:24;;;;;;;;;;;;;;;;;;5030163;28;19925;-55
2023/11/16 16:24:53;;;;;;;;;;;;;;;;;;5030132;28;20015;-54
2023/11/16 16:27:20;;;;;;;;;;;;;;;;;;5030047;28;20347;-55
2023/11/16 16:29:46;;;;;;;;;;;;;;;;;;5029640;28;19967;-57
2023/11/16 16:32:13;;;;;;;;;;;;;;;;;;5030032;28;19921;-59
2023/11/16 16:34:39;;;;;;;;;;;;;;;;;;5029803;28;20400;-53
2023/11/16 16:37:06;;;;;;;;;;;;;;;;;;5030212;28;20304;-57
2023/11/16 16:39:34;;;;;;;;;;;;;;;;;;5030487;28;19921;-61
2023/11/16 16:42:02;;;;;;;;;;;;;;;;;;5029895;28;19921;-58
2023/11/16 16:44:29;;;;;;;;;;;;;;;;;;5029579;28;19927;-55
2023/11/16 16:46:55;;;;;;;;;;;;;;;;;;5030024;28;19925;-56